sensor_id;sensor_type;location;lat;lon;timestamp;temperature;humidity
16958;DHT22;8595;52.542;11.974;2022-10-20T00:00:31;8.70;99.90
16958;DHT22;8595;52.542;11.974;2022-10-20T00:02:58;8.60;99.90
16958;DHT22;8595;52.542;11.974;2022-10-20T00:05:26;8.60;99.90
16958;DHT22;8595;52.542;11.974;2022-10-20T00:07:52;8.60;99.90
16958;DHT22;8595;52.542;11.974;2022-10-20T00:10:19;8.60;99.90
16958;DHT22;8595;52.542;11.974;2022-10-20T00:12:46;8.50;99.90
16958;DHT22;8595;52.542;11.974;2022-10-20T00:15:13;8.50;99.90
16958;DHT22;8595;52.542;11.974;2022-10-20T00:17:39;8.40;99.90
16958;DHT22;8595;52.542;11.974;2022-10-20T00:20:07;8.40;99.90
16958;DHT22;8595;52.542;11.974;2022-10-20T00:22:35;8.30;99.90
16958;DHT22;8595;52.542;11.974;2022-10-20T00:25:02;8.30;99.90
16958;DHT22;8595;52.542;11.974;2022-10-20T00:27:29;8.20;99.90
16958;DHT22;8595;52.542;11.974;2022-10-20T00:29:56;8.30;99.90
16958;DHT22;8595;52.542;11.974;2022-10-20T00:32:23;8.30;99.90
16958;DHT22;8595;52.542;11.974;2022-10-20T00:34:50;8.30;99.90
16958;DHT22;8595;52.542;11.974;2022-10-20T00:37:17;8.40;99.90
16958;DHT22;8595;52.542;11.974;2022-10-20T00:39:45;8.40;99.90
16958;DHT22;8595;52.542;11.974;2022-10-20T00:42:14;8.40;99.90
16958;DHT22;8595;52.542;11.974;2022-10-20T00:44:53;8.40;99.90
16958;DHT22;8595;52.542;11.974;2022-10-20T00:47:27;8.30;99.90
16958;DHT22;8595;52.542;11.974;2022-10-20T00:50:02;8.20;99.90
16958;DHT22;8595;52.542;11.974;2022-10-20T00:52:31;8.20;99.90
16958;DHT22;8595;52.542;11.974;2022-10-20T00:55:01;8.00;99.90
16958;DHT22;8595;52.542;11.974;2022-10-20T00:57:29;8.10;99.90
16958;DHT22;8595;52.542;11.974;2022-10-20T00:59:56;8.10;99.90
16958;DHT22;8595;52.542;11.974;2022-10-20T01:02:22;8.00;99.90
16958;DHT22;8595;52.542;11.974;2022-10-20T01:04:49;7.90;99.90
16958;DHT22;8595;52.542;11.974;2022-10-20T01:07:16;7.80;99.90
16958;DHT22;8595;52.542;11.974;2022-10-20T01:09:43;7.90;99.90
16958;DHT22;8595;52.542;11.974;2022-10-20T01:12:21;7.60;99.90
16958;DHT22;8595;52.542;11.974;2022-10-20T01:14:57;7.70;99.90
16958;DHT22;8595;52.542;11.974;2022-10-20T01:17:34;7.70;99.90
16958;DHT22;8595;52.542;11.974;2022-10-20T01:23:43;7.60;99.90
16958;DHT22;8595;52.542;11.974;2022-10-20T01:26:50;7.50;99.90
16958;DHT22;8595;52.542;11.974;2022-10-20T01:29:27;7.60;99.90
16958;DHT22;8595;52.542;11.974;2022-10-20T01:32:06;7.60;99.90
16958;DHT22;8595;52.542;11.974;2022-10-20T01:34:39;7.60;99.90
16958;DHT22;8595;52.542;11.974;2022-10-20T01:37:15;7.40;99.90
16958;DHT22;8595;52.542;11.974;2022-10-20T01:39:48;7.40;99.90
16958;DHT22;8595;52.542;11.974;2022-10-20T01:42:18;7.40;99.90
16958;DHT22;8595;52.542;11.974;2022-10-20T01:44:49;7.40;99.90
16958;DHT22;8595;52.542;11.974;2022-10-20T01:47:17;7.40;99.90
16958;DHT22;8595;52.542;11.974;2022-10-20T01:49:47;7.40;99.90
16958;DHT22;8595;52.542;11.974;2022-10-20T01:52:15;7.30;99.90
16958;DHT22;8595;52.542;11.974;2022-10-20T01:54:42;7.30;99.90
16958;DHT22;8595;52.542;11.974;2022-10-20T01:57:18;7.40;99.90
16958;DHT22;8595;52.542;11.974;2022-10-20T02:00:03;7.30;99.90
16958;DHT22;8595;52.542;11.974;2022-10-20T02:03:03;7.40;99.90
16958;DHT22;8595;52.542;11.974;2022-10-20T02:05:45;7.60;99.90
16958;DHT22;8595;52.542;11.974;2022-10-20T02:08:16;7.60;99.90
16958;DHT22;8595;52.542;11.974;2022-10-20T02:10:47;7.70;99.90
16958;DHT22;8595;52.542;11.974;2022-10-20T02:13:16;7.70;99.90
16958;DHT22;8595;52.542;11.974;2022-10-20T02:15:48;7.70;99.90
16958;DHT22;8595;52.542;11.974;2022-10-20T02:18:19;7.70;99.90
16958;DHT22;8595;52.542;11.974;2022-10-20T02:20:50;7.60;99.90
16958;DHT22;8595;52.542;11.974;2022-10-20T02:23:18;7.40;99.90
16958;DHT22;8595;52.542;11.974;2022-10-20T02:25:46;7.30;99.90
16958;DHT22;8595;52.542;11.974;2022-10-20T02:28:14;7.30;99.90
16958;DHT22;8595;52.542;11.974;2022-10-20T02:30:42;7.20;99.90
16958;DHT22;8595;52.542;11.974;2022-10-20T02:33:11;7.20;99.90
16958;DHT22;8595;52.542;11.974;2022-10-20T02:35:42;7.20;99.90
16958;DHT22;8595;52.542;11.974;2022-10-20T02:38:14;7.20;99.90
16958;DHT22;8595;52.542;11.974;2022-10-20T02:40:41;7.20;99.90
16958;DHT22;8595;52.542;11.974;2022-10-20T02:43:08;7.10;99.90
16958;DHT22;8595;52.542;11.974;2022-10-20T02:45:35;7.20;99.90
16958;DHT22;8595;52.542;11.974;2022-10-20T02:48:02;7.10;99.90
16958;DHT22;8595;52.542;11.974;2022-10-20T02:50:30;7.10;99.90
16958;DHT22;8595;52.542;11.974;2022-10-20T02:52:57;7.20;99.90
16958;DHT22;8595;52.542;11.974;2022-10-20T02:55:24;7.20;99.90
16958;DHT22;8595;52.542;11.974;2022-10-20T02:57:50;7.20;99.90
16958;DHT22;8595;52.542;11.974;2022-10-20T03:00:18;7.20;99.90
16958;DHT22;8595;52.542;11.974;2022-10-20T03:02:46;7.10;99.90
16958;DHT22;8595;52.542;11.974;2022-10-20T03:05:13;7.00;99.90
16958;DHT22;8595;52.542;11.974;2022-10-20T03:07:41;7.00;99.90
16958;DHT22;8595;52.542;11.974;2022-10-20T03:10:08;7.00;99.90
16958;DHT22;8595;52.542;11.974;2022-10-20T03:12:35;6.90;99.90
16958;DHT22;8595;52.542;11.974;2022-10-20T03:15:02;7.00;99.90
16958;DHT22;8595;52.542;11.974;2022-10-20T03:17:28;7.10;99.90
16958;DHT22;8595;52.542;11.974;2022-10-20T03:19:55;6.90;99.90
16958;DHT22;8595;52.542;11.974;2022-10-20T03:22:22;6.80;99.90
16958;DHT22;8595;52.542;11.974;2022-10-20T03:24:50;6.90;99.90
16958;DHT22;8595;52.542;11.974;2022-10-20T03:27:17;6.80;99.90
16958;DHT22;8595;52.542;11.974;2022-10-20T03:29:44;6.70;99.90
16958;DHT22;8595;52.542;11.974;2022-10-20T03:32:10;6.80;99.90
16958;DHT22;8595;52.542;11.974;2022-10-20T03:34:37;6.80;99.90
16958;DHT22;8595;52.542;11.974;2022-10-20T03:37:04;6.80;99.90
16958;DHT22;8595;52.542;11.974;2022-10-20T03:39:31;6.70;99.90
16958;DHT22;8595;52.542;11.974;2022-10-20T03:42:00;6.70;99.90
16958;DHT22;8595;52.542;11.974;2022-10-20T03:44:27;6.70;99.90
16958;DHT22;8595;52.542;11.974;2022-10-20T03:46:53;6.70;99.90
16958;DHT22;8595;52.542;11.974;2022-10-20T03:49:20;6.80;99.90
16958;DHT22;8595;52.542;11.974;2022-10-20T03:51:47;6.80;99.90
16958;DHT22;8595;52.542;11.974;2022-10-20T03:54:14;6.80;99.90
16958;DHT22;8595;52.542;11.974;2022-10-20T03:56:40;6.90;99.90
16958;DHT22;8595;52.542;11.974;2022-10-20T03:59:10;7.00;99.90
16958;DHT22;8595;52.542;11.974;2022-10-20T04:01:36;6.90;99.90
16958;DHT22;8595;52.542;11.974;2022-10-20T04:04:03;6.90;99.90
16958;DHT22;8595;52.542;11.974;2022-10-20T04:06:30;7.00;99.90
16958;DHT22;8595;52.542;11.974;2022-10-20T04:08:57;7.00;99.90
16958;DHT22;8595;52.542;11.974;2022-10-20T04:11:24;7.10;99.90
16958;DHT22;8595;52.542;11.974;2022-10-20T04:13:52;7.00;99.90
16958;DHT22;8595;52.542;11.974;2022-10-20T04:16:20;7.10;99.90
16958;DHT22;8595;52.542;11.974;2022-10-20T04:18:47;7.10;99.90
16958;DHT22;8595;52.542;11.974;2022-10-20T04:21:14;7.10;99.90
16958;DHT22;8595;52.542;11.974;2022-10-20T04:23:41;7.00;99.90
16958;DHT22;8595;52.542;11.974;2022-10-20T04:26:09;6.90;99.90
16958;DHT22;8595;52.542;11.974;2022-10-20T04:28:36;6.90;99.90
16958;DHT22;8595;52.542;11.974;2022-10-20T04:31:03;6.90;99.90
16958;DHT22;8595;52.542;11.974;2022-10-20T04:33:31;6.80;99.90
16958;DHT22;8595;52.542;11.974;2022-10-20T04:35:58;6.80;99.90
16958;DHT22;8595;52.542;11.974;2022-10-20T04:38:28;6.80;99.90
16958;DHT22;8595;52.542;11.974;2022-10-20T04:40:54;6.70;99.90
16958;DHT22;8595;52.542;11.974;2022-10-20T04:43:21;6.70;99.90
16958;DHT22;8595;52.542;11.974;2022-10-20T04:45:48;6.80;99.90
16958;DHT22;8595;52.542;11.974;2022-10-20T04:48:15;6.90;99.90
16958;DHT22;8595;52.542;11.974;2022-10-20T04:50:43;6.80;99.90
16958;DHT22;8595;52.542;11.974;2022-10-20T04:53:10;6.90;99.90
16958;DHT22;8595;52.542;11.974;2022-10-20T04:55:37;6.80;99.90
16958;DHT22;8595;52.542;11.974;2022-10-20T04:58:04;7.00;99.90
16958;DHT22;8595;52.542;11.974;2022-10-20T05:00:30;6.90;99.90
16958;DHT22;8595;52.542;11.974;2022-10-20T05:02:57;6.90;99.90
16958;DHT22;8595;52.542;11.974;2022-10-20T05:05:24;6.90;99.90
16958;DHT22;8595;52.542;11.974;2022-10-20T05:07:52;6.90;99.90
16958;DHT22;8595;52.542;11.974;2022-10-20T05:10:19;6.80;99.90
16958;DHT22;8595;52.542;11.974;2022-10-20T05:12:46;6.70;99.90
16958;DHT22;8595;52.542;11.974;2022-10-20T05:15:12;6.70;99.90
16958;DHT22;8595;52.542;11.974;2022-10-20T05:17:39;6.70;99.90
16958;DHT22;8595;52.542;11.974;2022-10-20T05:20:07;6.70;99.90
16958;DHT22;8595;52.542;11.974;2022-10-20T05:22:34;6.90;99.90
16958;DHT22;8595;52.542;11.974;2022-10-20T05:25:02;6.80;99.90
16958;DHT22;8595;52.542;11.974;2022-10-20T05:27:29;6.80;99.90
16958;DHT22;8595;52.542;11.974;2022-10-20T05:29:56;6.70;99.90
16958;DHT22;8595;52.542;11.974;2022-10-20T05:32:23;6.60;99.90
16958;DHT22;8595;52.542;11.974;2022-10-20T05:34:49;6.60;99.90
16958;DHT22;8595;52.542;11.974;2022-10-20T05:37:16;6.60;99.90
16958;DHT22;8595;52.542;11.974;2022-10-20T05:39:43;6.70;99.90
16958;DHT22;8595;52.542;11.974;2022-10-20T05:42:11;6.70;99.90
16958;DHT22;8595;52.542;11.974;2022-10-20T05:44:38;6.80;99.90
16958;DHT22;8595;52.542;11.974;2022-10-20T05:47:04;6.80;99.90
16958;DHT22;8595;52.542;11.974;2022-10-20T05:49:31;6.80;99.90
16958;DHT22;8595;52.542;11.974;2022-10-20T05:51:58;7.00;99.90
16958;DHT22;8595;52.542;11.974;2022-10-20T05:54:25;7.00;99.90
16958;DHT22;8595;52.542;11.974;2022-10-20T05:56:52;6.90;99.90
16958;DHT22;8595;52.542;11.974;2022-10-20T05:59:20;6.90;99.90
16958;DHT22;8595;52.542;11.974;2022-10-20T06:01:46;6.90;99.90
16958;DHT22;8595;52.542;11.974;2022-10-20T06:04:14;6.80;99.90
16958;DHT22;8595;52.542;11.974;2022-10-20T06:06:41;6.80;99.90
16958;DHT22;8595;52.542;11.974;2022-10-20T06:09:09;6.80;99.90
16958;DHT22;8595;52.542;11.974;2022-10-20T06:11:37;6.70;99.90
16958;DHT22;8595;52.542;11.974;2022-10-20T06:14:03;6.70;99.90
16958;DHT22;8595;52.542;11.974;2022-10-20T06:16:32;6.70;99.90
16958;DHT22;8595;52.542;11.974;2022-10-20T06:18:58;6.70;99.90
16958;DHT22;8595;52.542;11.974;2022-10-20T06:21:27;6.70;99.90
16958;DHT22;8595;52.542;11.974;2022-10-20T06:23:54;6.80;99.90
16958;DHT22;8595;52.542;11.974;2022-10-20T06:26:21;6.80;99.90
16958;DHT22;8595;52.542;11.974;2022-10-20T06:28:50;6.80;99.90
16958;DHT22;8595;52.542;11.974;2022-10-20T06:31:19;7.00;99.90
16958;DHT22;8595;52.542;11.974;2022-10-20T06:33:48;7.00;99.90
16958;DHT22;8595;52.542;11.974;2022-10-20T06:36:15;7.00;99.90
16958;DHT22;8595;52.542;11.974;2022-10-20T06:38:43;6.90;99.90
16958;DHT22;8595;52.542;11.974;2022-10-20T06:41:14;6.90;99.90
16958;DHT22;8595;52.542;11.974;2022-10-20T06:43:44;7.00;99.90
16958;DHT22;8595;52.542;11.974;2022-10-20T06:46:12;7.00;99.90
16958;DHT22;8595;52.542;11.974;2022-10-20T06:48:40;7.10;99.90
16958;DHT22;8595;52.542;11.974;2022-10-20T06:51:11;7.80;99.90
16958;DHT22;8595;52.542;11.974;2022-10-20T06:53:38;8.60;99.90
16958;DHT22;8595;52.542;11.974;2022-10-20T06:56:07;9.10;99.90
16958;DHT22;8595;52.542;11.974;2022-10-20T06:58:35;9.30;99.90
16958;DHT22;8595;52.542;11.974;2022-10-20T07:01:04;9.40;99.90
16958;DHT22;8595;52.542;11.974;2022-10-20T07:03:32;9.50;99.90
16958;DHT22;8595;52.542;11.974;2022-10-20T07:06:00;9.60;99.90
16958;DHT22;8595;52.542;11.974;2022-10-20T07:08:31;9.50;99.90
16958;DHT22;8595;52.542;11.974;2022-10-20T07:10:59;9.20;99.90
16958;DHT22;8595;52.542;11.974;2022-10-20T07:13:27;8.70;99.90
16958;DHT22;8595;52.542;11.974;2022-10-20T07:15:54;8.40;99.90
16958;DHT22;8595;52.542;11.974;2022-10-20T07:18:21;8.20;99.90
16958;DHT22;8595;52.542;11.974;2022-10-20T07:20:48;8.00;99.90
16958;DHT22;8595;52.542;11.974;2022-10-20T07:23:15;7.80;99.90
16958;DHT22;8595;52.542;11.974;2022-10-20T07:25:43;8.20;99.90
16958;DHT22;8595;52.542;11.974;2022-10-20T07:28:10;8.80;99.90
16958;DHT22;8595;52.542;11.974;2022-10-20T07:30:37;9.20;99.90
16958;DHT22;8595;52.542;11.974;2022-10-20T07:33:05;9.80;99.90
16958;DHT22;8595;52.542;11.974;2022-10-20T07:35:33;10.20;99.90
16958;DHT22;8595;52.542;11.974;2022-10-20T07:38:00;10.40;99.90
16958;DHT22;8595;52.542;11.974;2022-10-20T07:40:27;10.50;99.90
16958;DHT22;8595;52.542;11.974;2022-10-20T07:42:55;10.80;99.90
16958;DHT22;8595;52.542;11.974;2022-10-20T07:45:22;10.90;99.90
16958;DHT22;8595;52.542;11.974;2022-10-20T07:47:49;11.10;99.90
16958;DHT22;8595;52.542;11.974;2022-10-20T07:50:16;11.10;99.90
16958;DHT22;8595;52.542;11.974;2022-10-20T07:52:43;10.90;99.90
16958;DHT22;8595;52.542;11.974;2022-10-20T07:55:10;10.90;99.90
16958;DHT22;8595;52.542;11.974;2022-10-20T07:57:36;10.40;99.90
16958;DHT22;8595;52.542;11.974;2022-10-20T08:00:06;10.20;99.90
16958;DHT22;8595;52.542;11.974;2022-10-20T08:02:33;10.00;99.90
16958;DHT22;8595;52.542;11.974;2022-10-20T08:04:59;9.90;99.90
16958;DHT22;8595;52.542;11.974;2022-10-20T08:07:26;9.70;99.90
16958;DHT22;8595;52.542;11.974;2022-10-20T08:09:53;9.50;99.90
16958;DHT22;8595;52.542;11.974;2022-10-20T08:12:20;9.60;99.90
16958;DHT22;8595;52.542;11.974;2022-10-20T08:14:46;9.50;99.90
16958;DHT22;8595;52.542;11.974;2022-10-20T08:17:14;9.70;99.90
16958;DHT22;8595;52.542;11.974;2022-10-20T08:19:41;9.90;99.90
16958;DHT22;8595;52.542;11.974;2022-10-20T08:22:08;10.10;99.90
16958;DHT22;8595;52.542;11.974;2022-10-20T08:24:35;10.40;99.90
16958;DHT22;8595;52.542;11.974;2022-10-20T08:27:02;10.80;99.90
16958;DHT22;8595;52.542;11.974;2022-10-20T08:29:29;11.30;99.90
16958;DHT22;8595;52.542;11.974;2022-10-20T08:31:56;11.50;99.90
16958;DHT22;8595;52.542;11.974;2022-10-20T08:34:24;11.50;99.90
16958;DHT22;8595;52.542;11.974;2022-10-20T08:36:51;11.60;99.90
16958;DHT22;8595;52.542;11.974;2022-10-20T08:39:18;11.50;99.90
16958;DHT22;8595;52.542;11.974;2022-10-20T08:41:46;11.60;99.90
16958;DHT22;8595;52.542;11.974;2022-10-20T08:44:18;11.80;99.90
16958;DHT22;8595;52.542;11.974;2022-10-20T08:46:47;11.90;99.90
16958;DHT22;8595;52.542;11.974;2022-10-20T08:49:18;12.10;99.90
16958;DHT22;8595;52.542;11.974;2022-10-20T08:51:48;12.40;99.90
16958;DHT22;8595;52.542;11.974;2022-10-20T08:54:15;12.60;99.90
16958;DHT22;8595;52.542;11.974;2022-10-20T08:56:43;13.00;99.90
16958;DHT22;8595;52.542;11.974;2022-10-20T08:59:25;12.90;99.90
16958;DHT22;8595;52.542;11.974;2022-10-20T09:01:52;12.80;99.90
16958;DHT22;8595;52.542;11.974;2022-10-20T09:04:21;13.00;99.90
16958;DHT22;8595;52.542;11.974;2022-10-20T09:06:55;13.10;99.90
16958;DHT22;8595;52.542;11.974;2022-10-20T09:09:23;13.40;99.90
16958;DHT22;8595;52.542;11.974;2022-10-20T09:11:51;13.50;99.90
16958;DHT22;8595;52.542;11.974;2022-10-20T09:14:21;13.70;99.90
16958;DHT22;8595;52.542;11.974;2022-10-20T09:16:48;13.70;99.90
16958;DHT22;8595;52.542;11.974;2022-10-20T09:19:16;13.90;99.90
16958;DHT22;8595;52.542;11.974;2022-10-20T09:21:45;14.00;99.90
16958;DHT22;8595;52.542;11.974;2022-10-20T09:24:14;14.00;99.90
16958;DHT22;8595;52.542;11.974;2022-10-20T09:26:43;13.70;99.90
16958;DHT22;8595;52.542;11.974;2022-10-20T09:29:12;13.40;99.90
16958;DHT22;8595;52.542;11.974;2022-10-20T09:31:41;13.30;99.90
16958;DHT22;8595;52.542;11.974;2022-10-20T09:34:26;13.50;99.90
16958;DHT22;8595;52.542;11.974;2022-10-20T09:36:58;13.70;99.90
16958;DHT22;8595;52.542;11.974;2022-10-20T09:39:31;13.60;99.90
16958;DHT22;8595;52.542;11.974;2022-10-20T09:42:01;13.60;99.90
16958;DHT22;8595;52.542;11.974;2022-10-20T09:44:30;13.60;99.90
16958;DHT22;8595;52.542;11.974;2022-10-20T09:46:59;13.70;99.90
16958;DHT22;8595;52.542;11.974;2022-10-20T09:49:28;13.90;99.90
16958;DHT22;8595;52.542;11.974;2022-10-20T09:51:57;14.10;99.90
16958;DHT22;8595;52.542;11.974;2022-10-20T09:54:25;14.50;99.90
16958;DHT22;8595;52.542;11.974;2022-10-20T09:57:03;14.70;99.90
16958;DHT22;8595;52.542;11.974;2022-10-20T09:59:33;15.20;99.90
16958;DHT22;8595;52.542;11.974;2022-10-20T10:02:01;15.60;99.90
16958;DHT22;8595;52.542;11.974;2022-10-20T10:04:32;16.00;99.90
16958;DHT22;8595;52.542;11.974;2022-10-20T10:06:58;15.90;99.90
16958;DHT22;8595;52.542;11.974;2022-10-20T10:09:28;15.70;99.90
16958;DHT22;8595;52.542;11.974;2022-10-20T10:12:00;15.70;99.90
16958;DHT22;8595;52.542;11.974;2022-10-20T10:14:29;15.60;99.90
16958;DHT22;8595;52.542;11.974;2022-10-20T10:16:58;15.50;99.90
16958;DHT22;8595;52.542;11.974;2022-10-20T10:19:27;15.50;99.90
16958;DHT22;8595;52.542;11.974;2022-10-20T10:21:56;15.50;99.90
16958;DHT22;8595;52.542;11.974;2022-10-20T10:24:37;15.50;99.90
16958;DHT22;8595;52.542;11.974;2022-10-20T10:27:18;15.80;99.90
16958;DHT22;8595;52.542;11.974;2022-10-20T10:29:45;16.20;99.90
16958;DHT22;8595;52.542;11.974;2022-10-20T10:32:14;16.50;99.90
16958;DHT22;8595;52.542;11.974;2022-10-20T10:34:59;16.90;99.90
16958;DHT22;8595;52.542;11.974;2022-10-20T10:37:27;16.70;99.90
16958;DHT22;8595;52.542;11.974;2022-10-20T10:39:54;16.50;99.90
16958;DHT22;8595;52.542;11.974;2022-10-20T10:42:47;16.50;99.90
16958;DHT22;8595;52.542;11.974;2022-10-20T10:45:19;16.70;99.90
16958;DHT22;8595;52.542;11.974;2022-10-20T10:48:04;17.10;99.90
16958;DHT22;8595;52.542;11.974;2022-10-20T10:50:37;17.50;99.90
16958;DHT22;8595;52.542;11.974;2022-10-20T10:53:16;17.30;99.90
16958;DHT22;8595;52.542;11.974;2022-10-20T10:55:50;17.20;99.90
16958;DHT22;8595;52.542;11.974;2022-10-20T10:58:31;17.30;99.90
16958;DHT22;8595;52.542;11.974;2022-10-20T11:01:07;17.60;99.90
16958;DHT22;8595;52.542;11.974;2022-10-20T11:03:52;17.60;99.90
16958;DHT22;8595;52.542;11.974;2022-10-20T11:06:27;17.80;99.90
16958;DHT22;8595;52.542;11.974;2022-10-20T11:09:16;18.00;99.90
16958;DHT22;8595;52.542;11.974;2022-10-20T11:11:57;18.00;99.90
16958;DHT22;8595;52.542;11.974;2022-10-20T11:14:37;18.30;99.90
16958;DHT22;8595;52.542;11.974;2022-10-20T11:17:19;18.20;99.90
16958;DHT22;8595;52.542;11.974;2022-10-20T11:20:07;17.90;99.90
16958;DHT22;8595;52.542;11.974;2022-10-20T11:22:44;17.70;99.90
16958;DHT22;8595;52.542;11.974;2022-10-20T11:25:20;17.70;99.90
16958;DHT22;8595;52.542;11.974;2022-10-20T11:27:49;18.00;99.90
16958;DHT22;8595;52.542;11.974;2022-10-20T11:30:19;18.20;99.90
16958;DHT22;8595;52.542;11.974;2022-10-20T11:32:50;18.40;99.90
16958;DHT22;8595;52.542;11.974;2022-10-20T11:35:29;18.60;99.90
16958;DHT22;8595;52.542;11.974;2022-10-20T11:38:06;18.50;99.90
16958;DHT22;8595;52.542;11.974;2022-10-20T11:40:39;18.60;99.90
16958;DHT22;8595;52.542;11.974;2022-10-20T11:43:13;18.60;99.90
16958;DHT22;8595;52.542;11.974;2022-10-20T11:45:48;18.70;99.90
16958;DHT22;8595;52.542;11.974;2022-10-20T11:48:21;18.80;99.90
16958;DHT22;8595;52.542;11.974;2022-10-20T11:50:56;18.80;99.90
16958;DHT22;8595;52.542;11.974;2022-10-20T11:53:35;18.80;99.90
16958;DHT22;8595;52.542;11.974;2022-10-20T11:56:31;18.80;99.90
16958;DHT22;8595;52.542;11.974;2022-10-20T11:59:12;19.20;99.90
16958;DHT22;8595;52.542;11.974;2022-10-20T12:01:57;19.00;99.90
16958;DHT22;8595;52.542;11.974;2022-10-20T12:04:39;19.10;99.90
16958;DHT22;8595;52.542;11.974;2022-10-20T12:07:22;19.20;99.90
16958;DHT22;8595;52.542;11.974;2022-10-20T12:10:06;19.10;99.90
16958;DHT22;8595;52.542;11.974;2022-10-20T12:12:44;19.20;99.90
16958;DHT22;8595;52.542;11.974;2022-10-20T12:15:20;19.50;99.90
16958;DHT22;8595;52.542;11.974;2022-10-20T12:17:50;19.90;99.90
16958;DHT22;8595;52.542;11.974;2022-10-20T12:23:53;19.70;99.90
16958;DHT22;8595;52.542;11.974;2022-10-20T12:27:03;19.70;99.90
16958;DHT22;8595;52.542;11.974;2022-10-20T12:32:55;19.50;99.90
16958;DHT22;8595;52.542;11.974;2022-10-20T12:38:30;18.50;99.90
16958;DHT22;8595;52.542;11.974;2022-10-20T12:40:58;18.20;99.90
16958;DHT22;8595;52.542;11.974;2022-10-20T12:43:32;17.40;99.90
16958;DHT22;8595;52.542;11.974;2022-10-20T12:46:08;16.90;99.90
16958;DHT22;8595;52.542;11.974;2022-10-20T12:48:41;17.00;99.90
16958;DHT22;8595;52.542;11.974;2022-10-20T12:51:20;17.00;99.90
16958;DHT22;8595;52.542;11.974;2022-10-20T12:53:59;17.20;99.90
16958;DHT22;8595;52.542;11.974;2022-10-20T12:56:32;17.00;99.90
16958;DHT22;8595;52.542;11.974;2022-10-20T12:59:23;16.90;99.90
16958;DHT22;8595;52.542;11.974;2022-10-20T13:08:30;16.20;99.90
16958;DHT22;8595;52.542;11.974;2022-10-20T13:16:48;15.90;99.90
16958;DHT22;8595;52.542;11.974;2022-10-20T13:19:18;16.50;99.90
16958;DHT22;8595;52.542;11.974;2022-10-20T13:21:46;16.80;99.90
16958;DHT22;8595;52.542;11.974;2022-10-20T13:24:16;16.70;99.90
16958;DHT22;8595;52.542;11.974;2022-10-20T13:26:48;16.90;99.90
16958;DHT22;8595;52.542;11.974;2022-10-20T13:29:21;17.10;99.90
16958;DHT22;8595;52.542;11.974;2022-10-20T13:31:56;17.30;99.90
16958;DHT22;8595;52.542;11.974;2022-10-20T13:34:31;17.40;99.90
16958;DHT22;8595;52.542;11.974;2022-10-20T13:37:06;17.40;99.90
16958;DHT22;8595;52.542;11.974;2022-10-20T13:39:44;17.50;99.90
16958;DHT22;8595;52.542;11.974;2022-10-20T13:42:25;17.80;99.90
16958;DHT22;8595;52.542;11.974;2022-10-20T13:45:01;18.30;99.90
16958;DHT22;8595;52.542;11.974;2022-10-20T13:47:48;18.30;99.90
16958;DHT22;8595;52.542;11.974;2022-10-20T13:50:19;18.20;99.90
16958;DHT22;8595;52.542;11.974;2022-10-20T13:52:49;17.80;99.90
16958;DHT22;8595;52.542;11.974;2022-10-20T13:55:20;17.80;99.90
16958;DHT22;8595;52.542;11.974;2022-10-20T13:57:52;18.10;99.90
16958;DHT22;8595;52.542;11.974;2022-10-20T14:00:21;18.10;99.90
16958;DHT22;8595;52.542;11.974;2022-10-20T14:02:54;17.80;99.90
16958;DHT22;8595;52.542;11.974;2022-10-20T14:05:23;17.40;99.90
16958;DHT22;8595;52.542;11.974;2022-10-20T14:07:50;17.20;99.90
16958;DHT22;8595;52.542;11.974;2022-10-20T14:10:25;17.30;99.90
16958;DHT22;8595;52.542;11.974;2022-10-20T14:12:54;17.30;99.90
16958;DHT22;8595;52.542;11.974;2022-10-20T14:15:29;17.40;99.90
16958;DHT22;8595;52.542;11.974;2022-10-20T14:17:58;17.50;99.90
16958;DHT22;8595;52.542;11.974;2022-10-20T14:20:26;17.50;99.90
16958;DHT22;8595;52.542;11.974;2022-10-20T14:22:54;17.70;99.90
16958;DHT22;8595;52.542;11.974;2022-10-20T14:25:24;17.70;99.90
16958;DHT22;8595;52.542;11.974;2022-10-20T14:27:53;17.70;99.90
16958;DHT22;8595;52.542;11.974;2022-10-20T14:30:21;17.60;99.90
16958;DHT22;8595;52.542;11.974;2022-10-20T14:32:49;17.80;99.90
16958;DHT22;8595;52.542;11.974;2022-10-20T14:35:25;17.70;99.90
16958;DHT22;8595;52.542;11.974;2022-10-20T14:37:58;17.60;99.90
16958;DHT22;8595;52.542;11.974;2022-10-20T14:40:28;17.50;99.90
16958;DHT22;8595;52.542;11.974;2022-10-20T14:42:58;17.50;99.90
16958;DHT22;8595;52.542;11.974;2022-10-20T14:45:27;17.70;99.90
16958;DHT22;8595;52.542;11.974;2022-10-20T14:47:55;17.40;99.90
16958;DHT22;8595;52.542;11.974;2022-10-20T14:50:31;17.00;99.90
16958;DHT22;8595;52.542;11.974;2022-10-20T14:53:29;16.80;99.90
16958;DHT22;8595;52.542;11.974;2022-10-20T14:56:00;16.70;99.90
16958;DHT22;8595;52.542;11.974;2022-10-20T14:58:35;16.50;99.90
16958;DHT22;8595;52.542;11.974;2022-10-20T15:01:29;16.20;99.90
16958;DHT22;8595;52.542;11.974;2022-10-20T15:04:13;15.90;99.90
16958;DHT22;8595;52.542;11.974;2022-10-20T15:06:41;15.70;99.90
16958;DHT22;8595;52.542;11.974;2022-10-20T15:09:17;15.50;99.90
16958;DHT22;8595;52.542;11.974;2022-10-20T15:11:46;15.30;99.90
16958;DHT22;8595;52.542;11.974;2022-10-20T15:14:15;15.20;99.90
16958;DHT22;8595;52.542;11.974;2022-10-20T15:16:44;15.00;99.90
16958;DHT22;8595;52.542;11.974;2022-10-20T15:19:26;15.00;99.90
16958;DHT22;8595;52.542;11.974;2022-10-20T15:22:01;14.80;99.90
16958;DHT22;8595;52.542;11.974;2022-10-20T15:24:28;14.60;99.90
16958;DHT22;8595;52.542;11.974;2022-10-20T15:26:56;14.50;99.90
16958;DHT22;8595;52.542;11.974;2022-10-20T15:29:24;14.40;99.90
16958;DHT22;8595;52.542;11.974;2022-10-20T15:31:51;14.30;99.90
16958;DHT22;8595;52.542;11.974;2022-10-20T15:34:18;14.30;99.90
16958;DHT22;8595;52.542;11.974;2022-10-20T15:36:45;14.20;99.90
16958;DHT22;8595;52.542;11.974;2022-10-20T15:39:12;14.10;99.90
16958;DHT22;8595;52.542;11.974;2022-10-20T15:41:39;14.00;99.90
16958;DHT22;8595;52.542;11.974;2022-10-20T15:44:12;14.00;99.90
16958;DHT22;8595;52.542;11.974;2022-10-20T15:46:40;14.00;99.90
16958;DHT22;8595;52.542;11.974;2022-10-20T15:49:07;13.90;99.90
16958;DHT22;8595;52.542;11.974;2022-10-20T15:51:36;13.80;99.90
16958;DHT22;8595;52.542;11.974;2022-10-20T15:54:04;13.70;99.90
16958;DHT22;8595;52.542;11.974;2022-10-20T15:56:31;13.50;99.90
16958;DHT22;8595;52.542;11.974;2022-10-20T15:58:59;13.50;99.90
16958;DHT22;8595;52.542;11.974;2022-10-20T16:01:28;13.40;99.90
16958;DHT22;8595;52.542;11.974;2022-10-20T16:03:54;13.30;99.90
16958;DHT22;8595;52.542;11.974;2022-10-20T16:06:22;13.20;99.90
16958;DHT22;8595;52.542;11.974;2022-10-20T16:08:50;13.20;99.90
16958;DHT22;8595;52.542;11.974;2022-10-20T16:11:19;13.20;99.90
16958;DHT22;8595;52.542;11.974;2022-10-20T16:13:46;13.10;99.90
16958;DHT22;8595;52.542;11.974;2022-10-20T16:16:14;13.00;99.90
16958;DHT22;8595;52.542;11.974;2022-10-20T16:18:43;13.00;99.90
16958;DHT22;8595;52.542;11.974;2022-10-20T16:21:10;13.00;99.90
16958;DHT22;8595;52.542;11.974;2022-10-20T16:23:37;12.90;99.90